createdAt,value
2018-08-31T00:00:57.493Z,13.62
2018-08-31T00:01:57.718Z,13.52
2018-08-31T00:02:57.950Z,13.57
2018-08-31T00:04:07.048Z,13.50
2018-08-31T00:05:06.284Z,13.49
2018-08-31T00:06:06.486Z,13.42
2018-08-31T00:06:58.904Z,13.53
2018-08-31T00:08:07.045Z,13.59
2018-08-31T00:09:07.350Z,13.60
2018-08-31T00:09:59.613Z,13.72
2018-08-31T00:11:07.684Z,13.79
2018-08-31T00:12:00.025Z,13.75
2018-08-31T00:13:00.213Z,13.89
2018-08-31T00:14:00.440Z,13.85
2018-08-31T00:15:00.722Z,13.79
2018-08-31T00:16:00.906Z,13.90
2018-08-31T00:17:01.587Z,13.81
2018-08-31T00:18:01.264Z,13.89
2018-08-31T00:19:01.500Z,13.95
2018-08-31T00:20:01.723Z,13.93
2018-08-31T00:21:01.958Z,13.86
2018-08-31T00:22:02.185Z,13.78
2018-08-31T00:23:02.411Z,13.79
2018-08-31T00:24:02.637Z,13.86
2018-08-31T00:25:02.866Z,13.90
2018-08-31T00:26:03.092Z,13.79
2018-08-31T00:27:03.328Z,13.78
2018-08-31T00:28:03.554Z,13.67
2018-08-31T00:29:03.783Z,13.62
2018-08-31T00:30:04.052Z,13.57
2018-08-31T00:31:04.250Z,13.57
2018-08-31T00:32:04.463Z,13.50
2018-08-31T00:33:04.710Z,13.63
2018-08-31T00:34:04.935Z,13.81
2018-08-31T00:35:05.163Z,13.77
2018-08-31T00:36:05.389Z,13.81
2018-08-31T00:37:05.615Z,13.81
2018-08-31T00:38:05.845Z,13.71
2018-08-31T00:39:06.073Z,13.77
2018-08-31T00:40:06.307Z,13.83
2018-08-31T00:41:06.531Z,13.86
2018-08-31T00:42:06.748Z,13.85
2018-08-31T00:43:06.985Z,13.78
2018-08-31T00:44:07.215Z,13.79
2018-08-31T00:45:07.443Z,13.86
2018-08-31T00:46:07.668Z,13.83
2018-08-31T00:47:07.937Z,13.70
2018-08-31T00:48:08.151Z,13.65
2018-08-31T00:49:08.387Z,13.52
2018-08-31T00:50:08.607Z,13.53
2018-08-31T00:51:08.835Z,13.50
2018-08-31T00:52:09.063Z,13.46
2018-08-31T00:53:09.287Z,13.49
2018-08-31T00:54:09.515Z,13.41
2018-08-31T00:55:09.731Z,13.31
2018-08-31T00:56:09.958Z,13.49
2018-08-31T00:57:10.186Z,13.57
2018-08-31T00:58:10.414Z,13.59
2018-08-31T00:59:10.636Z,13.71
2018-08-31T01:00:10.860Z,13.71
2018-08-31T01:01:11.083Z,13.62
2018-08-31T01:02:11.302Z,13.68
2018-08-31T01:03:11.531Z,13.77
2018-08-31T01:04:11.758Z,13.77
2018-08-31T01:05:11.990Z,13.81
2018-08-31T01:06:12.217Z,13.54
2018-08-31T01:07:12.443Z,13.42
2018-08-31T01:08:12.669Z,13.38
2018-08-31T01:09:12.894Z,13.30
2018-08-31T01:10:13.119Z,13.44
2018-08-31T01:11:13.346Z,13.56
2018-08-31T01:12:13.575Z,13.54
2018-08-31T01:13:13.801Z,13.70
2018-08-31T01:14:14.037Z,13.72
2018-08-31T01:15:14.255Z,13.71
2018-08-31T01:16:14.484Z,13.65
2018-08-31T01:17:14.704Z,13.78
2018-08-31T01:18:14.934Z,13.74
2018-08-31T01:19:15.162Z,13.72
2018-08-31T01:20:15.388Z,13.74
2018-08-31T01:21:15.611Z,13.74
2018-08-31T01:22:15.839Z,13.75
2018-08-31T01:23:16.069Z,13.72
2018-08-31T01:24:16.285Z,13.75
2018-08-31T01:25:16.501Z,13.65
2018-08-31T01:26:16.725Z,13.72
2018-08-31T01:27:16.950Z,13.68
2018-08-31T01:28:17.176Z,13.65
2018-08-31T01:29:17.402Z,13.63
2018-08-31T01:30:17.630Z,13.62
2018-08-31T01:31:17.860Z,13.70
2018-08-31T01:32:18.088Z,13.60
2018-08-31T01:33:18.311Z,13.60
2018-08-31T01:34:18.535Z,13.60
2018-08-31T01:35:18.764Z,13.57
2018-08-31T01:36:18.988Z,13.57
2018-08-31T01:37:19.212Z,13.56
2018-08-31T01:38:19.440Z,13.50
2018-08-31T01:39:19.669Z,13.57
2018-08-31T01:40:19.903Z,13.50
2018-08-31T01:41:20.118Z,13.47
2018-08-31T01:42:20.343Z,13.49
2018-08-31T01:43:20.581Z,13.49
2018-08-31T01:44:20.800Z,13.53
2018-08-31T01:45:21.035Z,13.46
2018-08-31T01:46:21.249Z,13.52
2018-08-31T01:47:21.477Z,13.52
2018-08-31T01:48:21.709Z,13.46
2018-08-31T01:49:21.935Z,13.46
2018-08-31T01:50:22.165Z,13.47
2018-08-31T01:51:22.392Z,13.46
2018-08-31T01:52:22.619Z,13.41
2018-08-31T01:53:22.845Z,13.47
2018-08-31T01:54:23.071Z,13.54
2018-08-31T01:55:23.298Z,13.46
2018-08-31T01:56:23.517Z,13.42
2018-08-31T01:57:23.742Z,13.23
2018-08-31T01:58:23.973Z,13.33
2018-08-31T01:59:24.196Z,13.39
2018-08-31T02:00:24.426Z,13.41
2018-08-31T02:01:24.664Z,13.38
2018-08-31T02:02:24.892Z,13.31
2018-08-31T02:03:25.120Z,13.11
2018-08-31T02:04:25.351Z,13.23
2018-08-31T02:05:25.580Z,13.11
2018-08-31T02:06:25.808Z,13.20
2018-08-31T02:07:26.038Z,13.16
2018-08-31T02:08:26.266Z,12.91
2018-08-31T02:09:26.497Z,12.79
2018-08-31T02:10:26.729Z,12.68
2018-08-31T02:11:26.957Z,12.76
2018-08-31T02:12:27.183Z,12.70
2018-08-31T02:13:27.403Z,12.70
2018-08-31T02:14:27.631Z,12.70
2018-08-31T02:15:27.857Z,12.64
2018-08-31T02:16:28.087Z,12.64
2018-08-31T02:17:28.305Z,12.72
2018-08-31T02:18:28.534Z,12.76
2018-08-31T02:19:28.749Z,12.80
2018-08-31T02:20:28.973Z,12.65
2018-08-31T02:21:29.183Z,12.67
2018-08-31T02:22:29.409Z,12.64
2018-08-31T02:23:29.635Z,12.83
2018-08-31T02:24:29.859Z,12.87
2018-08-31T02:25:30.093Z,12.98
2018-08-31T02:26:30.326Z,13.05
2018-08-31T02:27:30.551Z,13.05
2018-08-31T02:28:30.778Z,13.08
2018-08-31T02:29:31.004Z,13.15
2018-08-31T02:30:31.226Z,13.12
2018-08-31T02:31:31.452Z,13.09
2018-08-31T02:32:31.678Z,13.23
2018-08-31T02:33:31.905Z,13.19
2018-08-31T02:34:32.132Z,13.20
2018-08-31T02:35:32.359Z,13.20
2018-08-31T02:36:32.583Z,13.23
2018-08-31T02:37:32.810Z,13.27
2018-08-31T02:38:33.036Z,13.20
2018-08-31T02:39:33.269Z,13.25
2018-08-31T02:40:33.498Z,13.28
2018-08-31T02:41:33.719Z,13.31
2018-08-31T02:42:33.942Z,13.37
2018-08-31T02:43:34.192Z,13.22
2018-08-31T02:44:34.384Z,13.30
2018-08-31T02:45:34.613Z,13.30
2018-08-31T02:46:34.841Z,13.22
2018-08-31T02:47:35.070Z,13.25
2018-08-31T02:48:35.299Z,13.16
2018-08-31T02:49:35.533Z,13.18
2018-08-31T02:50:35.742Z,13.23
2018-08-31T02:51:35.970Z,13.12
2018-08-31T02:52:36.189Z,13.08
2018-08-31T02:53:36.423Z,13.01
2018-08-31T02:54:36.647Z,13.09
2018-08-31T02:55:36.867Z,13.01
2018-08-31T02:56:37.101Z,12.80
2018-08-31T02:57:37.329Z,12.75
2018-08-31T02:58:37.555Z,12.70
2018-08-31T02:59:37.784Z,12.68
2018-08-31T03:00:38.016Z,12.61
2018-08-31T03:01:38.247Z,12.55
2018-08-31T03:02:38.472Z,12.72
2018-08-31T03:03:38.695Z,12.50
2018-08-31T03:04:38.939Z,12.65
2018-08-31T03:05:39.152Z,12.61
2018-08-31T03:06:39.381Z,12.60
2018-08-31T03:07:39.607Z,12.53
2018-08-31T03:08:39.837Z,12.61
2018-08-31T03:09:40.072Z,12.55
2018-08-31T03:10:40.296Z,12.54
2018-08-31T03:11:40.546Z,12.54
2018-08-31T03:12:40.752Z,12.42
2018-08-31T03:13:40.979Z,12.42
2018-08-31T03:14:41.220Z,12.50
2018-08-31T03:15:41.444Z,12.45
2018-08-31T03:16:41.671Z,12.55
2018-08-31T03:17:41.895Z,12.62
2018-08-31T03:18:42.125Z,12.57
2018-08-31T03:19:42.356Z,12.55
2018-08-31T03:20:42.581Z,12.58
2018-08-31T03:21:42.806Z,12.62
2018-08-31T03:22:43.036Z,12.75
2018-08-31T03:23:43.263Z,12.83
2018-08-31T03:24:43.490Z,12.85
2018-08-31T03:25:43.714Z,12.86
2018-08-31T03:26:43.948Z,12.97
2018-08-31T03:27:44.173Z,13.03
2018-08-31T03:28:44.403Z,13.08
2018-08-31T03:29:44.629Z,13.04
2018-08-31T03:30:44.853Z,13.08
2018-08-31T03:31:45.103Z,13.09
2018-08-31T03:32:45.306Z,13.05
2018-08-31T03:33:45.533Z,13.01
2018-08-31T03:34:45.762Z,13.05
2018-08-31T03:35:45.985Z,13.01
2018-08-31T03:36:54.154Z,13.05
2018-08-31T03:37:46.487Z,13.05
2018-08-31T03:38:46.685Z,13.05
2018-08-31T03:39:47.126Z,13.05
2018-08-31T03:40:55.069Z,13.03
2018-08-31T03:41:47.416Z,13.12
2018-08-31T03:42:47.636Z,13.01
2018-08-31T03:43:48.065Z,13.09
2018-08-31T03:44:48.088Z,13.09
2018-08-31T03:45:48.315Z,13.01
2018-08-31T03:46:48.546Z,13.03
2018-08-31T03:47:48.772Z,13.00
2018-08-31T03:48:48.997Z,13.05
2018-08-31T03:49:49.219Z,13.08
2018-08-31T03:50:49.442Z,13.04
2018-08-31T03:51:49.671Z,13.03
2018-08-31T03:52:49.897Z,13.01
2018-08-31T03:53:50.121Z,13.03
2018-08-31T03:54:50.349Z,13.08
2018-08-31T03:55:50.577Z,13.08
2018-08-31T03:56:50.805Z,12.98
2018-08-31T03:57:51.036Z,13.03
2018-08-31T03:58:51.256Z,13.04
2018-08-31T03:59:51.480Z,13.05
2018-08-31T04:00:51.702Z,13.00
2018-08-31T04:01:51.931Z,12.97
2018-08-31T04:02:52.161Z,13.01
2018-08-31T04:03:52.389Z,13.03
2018-08-31T04:04:52.613Z,13.09
2018-08-31T04:05:52.837Z,13.03
2018-08-31T04:06:53.060Z,13.00
2018-08-31T04:07:53.279Z,13.00
2018-08-31T04:08:53.518Z,13.11
2018-08-31T04:09:53.727Z,13.05
2018-08-31T04:10:53.968Z,13.00
2018-08-31T04:11:54.193Z,13.08
2018-08-31T04:12:54.407Z,13.05
2018-08-31T04:13:54.640Z,13.11
2018-08-31T04:14:54.894Z,13.09
2018-08-31T04:15:55.090Z,13.08
2018-08-31T04:16:55.321Z,12.86
2018-08-31T04:17:55.556Z,12.75
2018-08-31T04:18:55.821Z,12.70
2018-08-31T04:19:55.991Z,12.62
2018-08-31T04:20:56.215Z,12.60
2018-08-31T04:21:56.444Z,12.72
2018-08-31T04:22:56.668Z,12.83
2018-08-31T04:23:56.954Z,12.83
2018-08-31T04:24:57.134Z,12.85
2018-08-31T04:25:57.360Z,12.79
2018-08-31T04:26:57.590Z,12.80
2018-08-31T04:27:57.829Z,12.82
2018-08-31T04:28:58.045Z,12.86
2018-08-31T04:29:58.263Z,12.93
2018-08-31T04:30:58.505Z,12.90
2018-08-31T04:31:58.713Z,12.94
2018-08-31T04:32:58.956Z,12.94
2018-08-31T04:33:59.210Z,12.83
2018-08-31T04:34:59.394Z,12.86
2018-08-31T04:35:59.622Z,12.91
2018-08-31T04:36:59.867Z,12.91
2018-08-31T04:38:00.081Z,13.00
2018-08-31T04:39:00.301Z,12.97
2018-08-31T04:40:00.506Z,12.93
2018-08-31T04:41:00.758Z,12.90
2018-08-31T04:42:00.970Z,12.94
2018-08-31T04:43:01.235Z,12.93
2018-08-31T04:44:01.410Z,12.94
2018-08-31T04:45:01.650Z,12.98
2018-08-31T04:46:01.872Z,12.98
2018-08-31T04:47:02.093Z,12.93
2018-08-31T04:48:02.302Z,12.97
2018-08-31T04:49:02.542Z,12.86
2018-08-31T04:50:02.740Z,12.95
2018-08-31T04:51:02.969Z,12.91
2018-08-31T04:52:03.199Z,12.82
2018-08-31T04:53:03.408Z,12.93
2018-08-31T04:54:03.636Z,12.91
2018-08-31T04:55:03.862Z,12.90
2018-08-31T04:56:04.070Z,12.98
2018-08-31T04:57:04.287Z,12.83
2018-08-31T04:58:04.523Z,12.86
2018-08-31T04:59:04.748Z,12.87
2018-08-31T05:00:04.982Z,12.86
2018-08-31T05:01:05.194Z,12.80
2018-08-31T05:02:05.426Z,12.76
2018-08-31T05:03:05.635Z,12.73
2018-08-31T05:04:05.842Z,12.65
2018-08-31T05:05:06.076Z,12.68
2018-08-31T05:06:06.315Z,12.64
2018-08-31T05:07:06.536Z,12.67
2018-08-31T05:08:06.776Z,12.67
2018-08-31T05:09:07.012Z,12.61
2018-08-31T05:10:07.240Z,12.80
2018-08-31T05:11:07.454Z,12.83
2018-08-31T05:12:07.670Z,12.83
2018-08-31T05:13:07.924Z,13.00
2018-08-31T05:14:08.104Z,12.91
2018-08-31T05:15:08.331Z,13.05
2018-08-31T05:16:08.624Z,13.15
2018-08-31T05:17:08.786Z,13.15
2018-08-31T05:18:09.014Z,13.27
2018-08-31T05:19:09.236Z,13.19
2018-08-31T05:20:09.459Z,13.27
2018-08-31T05:21:09.699Z,13.33
2018-08-31T05:22:09.925Z,13.41
2018-08-31T05:23:10.202Z,13.50
2018-08-31T05:24:10.372Z,13.53
2018-08-31T05:25:10.600Z,13.52
2018-08-31T05:26:10.822Z,13.54
2018-08-31T05:27:11.049Z,13.47
2018-08-31T05:28:11.273Z,13.53
2018-08-31T05:29:11.515Z,13.63
2018-08-31T05:30:11.731Z,13.65
2018-08-31T05:31:11.952Z,13.71
2018-08-31T05:32:12.179Z,13.77
2018-08-31T05:33:12.408Z,13.77
2018-08-31T05:34:12.657Z,13.87
2018-08-31T05:35:12.918Z,13.93
2018-08-31T05:36:13.160Z,14.04
2018-08-31T05:37:13.331Z,14.03
2018-08-31T05:38:13.569Z,14.00
2018-08-31T05:39:13.760Z,14.10
2018-08-31T05:40:13.992Z,14.22
2018-08-31T05:41:14.192Z,14.17
2018-08-31T05:42:14.418Z,14.28
2018-08-31T05:43:14.673Z,14.35
2018-08-31T05:44:14.912Z,14.23
2018-08-31T05:45:15.098Z,13.93
2018-08-31T05:46:15.319Z,13.92
2018-08-31T05:47:15.536Z,13.95
2018-08-31T05:48:15.789Z,13.95
2018-08-31T05:49:15.991Z,14.07
2018-08-31T05:50:16.203Z,14.11
2018-08-31T05:51:16.449Z,14.22
2018-08-31T05:52:16.666Z,13.86
2018-08-31T05:53:16.899Z,13.79
2018-08-31T05:54:17.117Z,13.99
2018-08-31T05:55:17.371Z,13.89
2018-08-31T05:56:17.615Z,13.77
2018-08-31T05:57:17.811Z,13.85
2018-08-31T05:58:18.035Z,13.75
2018-08-31T05:59:18.281Z,13.93
2018-08-31T06:00:18.485Z,13.79
2018-08-31T06:01:18.765Z,13.93
2018-08-31T06:02:19.048Z,14.03
2018-08-31T06:03:19.180Z,14.10
2018-08-31T06:04:19.439Z,14.08
2018-08-31T06:05:19.638Z,14.07
2018-08-31T06:06:19.859Z,14.22
2018-08-31T06:07:20.077Z,14.29
2018-08-31T06:08:20.306Z,14.47
2018-08-31T06:09:20.587Z,14.47
2018-08-31T06:10:20.776Z,14.58
2018-08-31T06:11:20.988Z,14.62
2018-08-31T06:12:21.207Z,14.63
2018-08-31T06:13:21.418Z,14.65
2018-08-31T06:14:21.655Z,14.79
2018-08-31T06:15:21.863Z,14.81
2018-08-31T06:16:22.101Z,14.92
2018-08-31T06:17:22.337Z,14.97
2018-08-31T06:18:22.582Z,15.07
2018-08-31T06:19:22.760Z,15.09
2018-08-31T06:20:22.986Z,15.11
2018-08-31T06:21:23.227Z,15.29
2018-08-31T06:22:23.471Z,15.24
2018-08-31T06:23:23.733Z,15.25
2018-08-31T06:24:23.908Z,15.25
2018-08-31T06:25:24.127Z,15.33
2018-08-31T06:26:24.391Z,15.37
2018-08-31T06:27:24.597Z,15.43
2018-08-31T06:28:24.868Z,15.36
2018-08-31T06:29:25.054Z,15.49
2018-08-31T06:30:25.289Z,15.55
2018-08-31T06:31:25.550Z,15.58
2018-08-31T06:32:25.778Z,15.59
2018-08-31T06:33:26.023Z,15.62
2018-08-31T06:34:26.155Z,15.75
2018-08-31T06:35:26.420Z,15.77
2018-08-31T06:36:26.620Z,15.80
2018-08-31T06:37:26.829Z,15.83
2018-08-31T06:38:27.065Z,15.88
2018-08-31T06:39:27.259Z,15.95
2018-08-31T06:40:27.506Z,16.04
2018-08-31T06:41:27.779Z,16.02
2018-08-31T06:42:27.929Z,16.02
2018-08-31T06:43:28.174Z,16.13
2018-08-31T06:44:28.408Z,16.08
2018-08-31T06:45:28.605Z,16.12
2018-08-31T06:46:28.857Z,16.23
2018-08-31T06:47:29.072Z,16.29
2018-08-31T06:48:29.276Z,16.29
2018-08-31T06:49:29.520Z,16.35
2018-08-31T06:50:29.726Z,16.33
2018-08-31T06:51:30.047Z,16.35
2018-08-31T06:52:30.175Z,16.43
2018-08-31T06:53:30.412Z,16.57
2018-08-31T06:54:30.640Z,16.56
2018-08-31T06:55:30.844Z,16.60
2018-08-31T06:56:31.086Z,16.61
2018-08-31T06:57:31.313Z,16.58
2018-08-31T06:58:31.546Z,16.74
2018-08-31T06:59:31.805Z,16.78
2018-08-31T07:00:31.975Z,16.65
2018-08-31T07:01:32.217Z,16.72
2018-08-31T07:02:32.430Z,16.50
2018-08-31T07:03:32.654Z,16.60
2018-08-31T07:04:32.882Z,16.68
2018-08-31T07:05:33.107Z,16.74
2018-08-31T07:06:33.323Z,16.71
2018-08-31T07:07:33.591Z,16.75
2018-08-31T07:08:41.907Z,16.74
2018-08-31T07:09:43.592Z,16.84
2018-08-31T07:10:34.396Z,16.91
2018-08-31T07:11:42.672Z,16.89
2018-08-31T07:12:43.062Z,16.94
2018-08-31T07:13:43.248Z,17.01
2018-08-31T07:14:35.269Z,17.12
2018-08-31T07:15:35.432Z,17.08
2018-08-31T07:16:43.715Z,17.23
2018-08-31T07:17:35.863Z,17.16
2018-08-31T07:18:36.093Z,17.29
2018-08-31T07:19:36.391Z,17.38
2018-08-31T07:20:36.587Z,17.24
2018-08-31T07:21:36.763Z,17.22
2018-08-31T07:22:37.000Z,17.16
2018-08-31T07:23:37.222Z,17.19
2018-08-31T07:24:37.468Z,17.14
2018-08-31T07:25:37.683Z,16.94
2018-08-31T07:26:37.939Z,17.14
2018-08-31T07:27:38.147Z,17.14
2018-08-31T07:28:38.421Z,17.22
2018-08-31T07:29:38.594Z,17.22
2018-08-31T07:30:38.873Z,17.20
2018-08-31T07:31:39.039Z,17.22
2018-08-31T07:32:39.289Z,17.33
2018-08-31T07:33:39.509Z,17.27
2018-08-31T07:34:39.732Z,17.24
2018-08-31T07:35:39.950Z,17.33
2018-08-31T07:36:40.179Z,17.41
2018-08-31T07:37:40.418Z,17.54
2018-08-31T07:38:40.657Z,17.60
2018-08-31T07:39:40.898Z,17.64
2018-08-31T07:40:41.181Z,17.74
2018-08-31T07:41:41.351Z,17.72
2018-08-31T07:42:41.551Z,17.79
2018-08-31T07:43:41.813Z,17.82
2018-08-31T07:44:42.005Z,17.98
2018-08-31T07:45:42.230Z,18.07
2018-08-31T07:46:42.473Z,18.04
2018-08-31T07:47:42.732Z,17.74
2018-08-31T07:48:42.937Z,17.70
2018-08-31T07:49:43.128Z,17.60
2018-08-31T07:50:43.367Z,17.54
2018-08-31T07:51:43.582Z,17.52
2018-08-31T07:52:43.830Z,17.45
2018-08-31T07:53:44.089Z,17.54
2018-08-31T07:54:44.287Z,17.72
2018-08-31T07:55:44.495Z,18.08
2018-08-31T07:56:44.741Z,17.95
2018-08-31T07:57:44.955Z,17.92
2018-08-31T07:58:45.193Z,17.94
2018-08-31T07:59:45.418Z,18.08
2018-08-31T08:00:45.644Z,18.07
2018-08-31T08:01:45.874Z,18.22
2018-08-31T08:02:46.133Z,18.13
2018-08-31T08:03:46.361Z,18.13
2018-08-31T08:04:46.596Z,18.07
2018-08-31T08:05:46.830Z,18.20
2018-08-31T08:06:47.064Z,18.29
2018-08-31T08:07:47.284Z,18.05
2018-08-31T08:08:47.523Z,18.01
2018-08-31T08:09:47.758Z,18.00
2018-08-31T08:10:47.987Z,18.08
2018-08-31T08:11:48.218Z,17.83
2018-08-31T08:12:48.447Z,17.78
2018-08-31T08:13:48.678Z,17.72
2018-08-31T08:14:49.855Z,17.64
2018-08-31T08:15:49.124Z,17.65
2018-08-31T08:16:49.364Z,17.59
2018-08-31T08:17:49.602Z,17.57
2018-08-31T08:18:49.849Z,17.60
2018-08-31T08:19:50.054Z,17.46
2018-08-31T08:20:50.288Z,17.38
2018-08-31T08:21:50.525Z,17.33
2018-08-31T08:22:50.750Z,17.59
2018-08-31T08:23:50.984Z,17.63
2018-08-31T08:24:51.220Z,17.57
2018-08-31T08:25:51.438Z,17.56
2018-08-31T08:26:51.670Z,17.72
2018-08-31T08:27:51.901Z,17.85
2018-08-31T08:28:52.133Z,17.87
2018-08-31T08:29:52.379Z,17.72
2018-08-31T08:30:52.597Z,17.76
2018-08-31T08:31:52.825Z,17.83
2018-08-31T08:32:53.055Z,17.54
2018-08-31T08:33:53.282Z,17.48
2018-08-31T08:34:53.515Z,17.38
2018-08-31T08:35:53.788Z,17.29
2018-08-31T08:36:53.975Z,17.27
2018-08-31T08:37:54.207Z,17.15
2018-08-31T08:38:54.452Z,17.22
2018-08-31T08:39:54.666Z,17.20
2018-08-31T08:40:54.897Z,17.44
2018-08-31T08:41:55.130Z,17.45
2018-08-31T08:42:55.360Z,17.46
2018-08-31T08:43:55.591Z,17.57
2018-08-31T08:44:55.820Z,17.60
2018-08-31T08:45:56.052Z,17.57
2018-08-31T08:46:56.285Z,17.63
2018-08-31T08:47:56.514Z,17.39
2018-08-31T08:48:56.749Z,17.51
2018-08-31T08:49:56.979Z,17.30
2018-08-31T08:50:57.204Z,17.23
2018-08-31T08:51:57.436Z,17.29
2018-08-31T08:52:57.667Z,17.15
2018-08-31T08:53:57.895Z,17.27
2018-08-31T08:54:58.126Z,17.22
2018-08-31T08:55:58.360Z,17.23
2018-08-31T08:56:58.586Z,17.31
2018-08-31T08:57:58.818Z,17.29
2018-08-31T08:58:59.048Z,17.24
2018-08-31T08:59:59.277Z,17.33
2018-08-31T09:00:59.514Z,17.41
2018-08-31T09:01:59.737Z,17.29
2018-08-31T09:02:59.968Z,17.42
2018-08-31T09:04:00.198Z,17.39
2018-08-31T09:05:00.428Z,17.33
2018-08-31T09:06:00.656Z,17.42
2018-08-31T09:07:00.882Z,17.41
2018-08-31T09:08:01.115Z,17.52
2018-08-31T09:09:01.346Z,17.57
2018-08-31T09:10:01.582Z,17.76
2018-08-31T09:11:01.805Z,17.76
2018-08-31T09:12:02.069Z,17.67
2018-08-31T09:13:02.266Z,17.68
2018-08-31T09:14:02.498Z,17.71
2018-08-31T09:15:02.729Z,17.85
2018-08-31T09:16:02.963Z,17.94
2018-08-31T09:17:03.194Z,17.94
2018-08-31T09:18:03.422Z,18.00
2018-08-31T09:19:03.649Z,17.92
2018-08-31T09:20:03.887Z,17.97
2018-08-31T09:21:04.119Z,18.00
2018-08-31T09:22:04.343Z,18.13
2018-08-31T09:23:04.580Z,18.10
2018-08-31T09:24:04.808Z,18.15
2018-08-31T09:25:05.038Z,18.22
2018-08-31T09:26:05.270Z,18.20
2018-08-31T09:27:05.501Z,18.19
2018-08-31T09:28:05.735Z,18.05
2018-08-31T09:29:05.974Z,18.07
2018-08-31T09:30:06.194Z,18.18
2018-08-31T09:31:06.427Z,18.11
2018-08-31T09:32:06.657Z,18.29
2018-08-31T09:33:06.892Z,18.31
2018-08-31T09:34:07.122Z,18.18
2018-08-31T09:35:07.354Z,18.28
2018-08-31T09:36:07.588Z,18.33
2018-08-31T09:37:07.818Z,18.38
2018-08-31T09:38:08.050Z,18.45
2018-08-31T09:39:08.280Z,18.62
2018-08-31T09:40:08.514Z,18.65
2018-08-31T09:41:08.744Z,18.65
2018-08-31T09:42:08.978Z,18.60
2018-08-31T09:43:09.210Z,18.65
2018-08-31T09:44:09.444Z,18.68
2018-08-31T09:45:09.676Z,18.78
2018-08-31T09:46:09.905Z,18.86
2018-08-31T09:47:10.136Z,18.84
2018-08-31T09:48:10.365Z,18.95
2018-08-31T09:49:10.596Z,18.92
2018-08-31T09:50:10.832Z,18.88
2018-08-31T09:51:11.060Z,18.77
2018-08-31T09:52:11.290Z,18.88
2018-08-31T09:53:11.520Z,18.99
2018-08-31T09:54:11.751Z,18.92
2018-08-31T09:55:11.982Z,18.62
2018-08-31T09:56:12.217Z,18.62
2018-08-31T09:57:12.447Z,18.84
2018-08-31T09:58:12.680Z,19.04
2018-08-31T09:59:12.916Z,19.14
2018-08-31T10:00:13.144Z,19.07
2018-08-31T10:01:13.380Z,19.07
2018-08-31T10:02:13.609Z,18.95
2018-08-31T10:03:13.843Z,19.14
2018-08-31T10:04:14.072Z,19.22
2018-08-31T10:05:14.310Z,19.19
2018-08-31T10:06:14.536Z,19.22
2018-08-31T10:07:14.770Z,19.18
2018-08-31T10:08:15.000Z,19.18
2018-08-31T10:09:15.232Z,19.37
2018-08-31T10:10:15.464Z,19.22
2018-08-31T10:11:15.694Z,19.44
2018-08-31T10:12:15.925Z,19.56
2018-08-31T10:13:16.166Z,19.81
2018-08-31T10:14:16.388Z,19.77
2018-08-31T10:15:16.623Z,19.74
2018-08-31T10:16:16.853Z,19.84
2018-08-31T10:17:17.086Z,19.77
2018-08-31T10:18:17.319Z,19.81
2018-08-31T10:19:17.552Z,19.79
2018-08-31T10:20:17.784Z,19.74
2018-08-31T10:21:18.018Z,19.82
2018-08-31T10:22:18.250Z,19.79
2018-08-31T10:23:18.480Z,19.79
2018-08-31T10:24:18.710Z,19.67
2018-08-31T10:25:18.942Z,19.67
2018-08-31T10:26:19.199Z,19.56
2018-08-31T10:27:19.406Z,19.55
2018-08-31T10:28:19.643Z,19.49
2018-08-31T10:29:19.870Z,19.51
2018-08-31T10:30:20.207Z,19.55
2018-08-31T10:31:20.335Z,19.64
2018-08-31T10:32:20.570Z,19.37
2018-08-31T10:33:20.800Z,19.31
2018-08-31T10:34:21.033Z,19.39
2018-08-31T10:35:21.263Z,19.33
2018-08-31T10:36:21.495Z,19.30
2018-08-31T10:37:21.730Z,19.41
2018-08-31T10:38:21.961Z,19.54
2018-08-31T10:39:22.193Z,19.82
2018-08-31T10:40:22.443Z,19.71
2018-08-31T10:41:22.657Z,19.73
2018-08-31T10:42:22.888Z,19.95
2018-08-31T10:43:23.122Z,19.92
2018-08-31T10:44:23.354Z,19.91
2018-08-31T10:45:23.585Z,19.92
2018-08-31T10:46:23.821Z,20.07
2018-08-31T10:47:24.049Z,20.21
2018-08-31T10:48:24.281Z,20.16
2018-08-31T10:49:24.515Z,20.14
2018-08-31T10:50:24.749Z,20.29
2018-08-31T10:51:24.982Z,20.18
2018-08-31T10:52:25.213Z,20.26
2018-08-31T10:53:25.447Z,20.51
2018-08-31T10:54:25.679Z,20.63
2018-08-31T10:55:25.910Z,20.80
2018-08-31T10:56:26.146Z,20.75
2018-08-31T10:57:26.376Z,20.63
2018-08-31T10:58:26.612Z,20.60
2018-08-31T10:59:26.839Z,20.56
2018-08-31T11:00:27.074Z,20.67
2018-08-31T11:01:27.307Z,20.67
2018-08-31T11:02:27.544Z,20.63
2018-08-31T11:03:27.778Z,20.63
2018-08-31T11:04:28.011Z,20.75
2018-08-31T11:05:28.243Z,20.67
2018-08-31T11:06:28.478Z,20.67
2018-08-31T11:07:28.708Z,20.81
2018-08-31T11:08:28.942Z,20.70
2018-08-31T11:09:29.178Z,20.81
2018-08-31T11:10:29.411Z,20.88
2018-08-31T11:11:29.642Z,20.81
2018-08-31T11:12:29.888Z,20.88
2018-08-31T11:13:30.108Z,20.69
2018-08-31T11:14:30.348Z,20.72
2018-08-31T11:15:30.575Z,20.82
2018-08-31T11:16:30.808Z,20.80
2018-08-31T11:17:31.038Z,20.63
2018-08-31T11:18:31.273Z,20.58
2018-08-31T11:19:31.507Z,20.58
2018-08-31T11:20:31.738Z,20.62
2018-08-31T11:21:31.974Z,20.58
2018-08-31T11:22:32.207Z,20.62
2018-08-31T11:23:32.437Z,20.85
2018-08-31T11:24:32.670Z,21.03
2018-08-31T11:25:32.902Z,21.18
2018-08-31T11:26:33.136Z,21.30
2018-08-31T11:27:33.369Z,21.32
2018-08-31T11:28:33.604Z,21.30
2018-08-31T11:29:33.836Z,21.17
2018-08-31T11:30:34.069Z,21.09
2018-08-31T11:31:34.302Z,21.18
2018-08-31T11:32:34.543Z,21.35
2018-08-31T11:33:34.783Z,21.29
2018-08-31T11:34:35.013Z,21.21
2018-08-31T11:35:35.246Z,21.15
2018-08-31T11:36:35.489Z,21.20
2018-08-31T11:37:35.722Z,21.17
2018-08-31T11:38:35.954Z,21.25
2018-08-31T11:39:36.189Z,21.21
2018-08-31T11:40:36.426Z,21.24
2018-08-31T11:41:36.658Z,21.27
2018-08-31T11:42:36.901Z,21.33
2018-08-31T11:43:37.129Z,21.33
2018-08-31T11:44:37.365Z,21.29
2018-08-31T11:45:37.596Z,21.27
2018-08-31T11:46:37.838Z,21.45
2018-08-31T11:47:38.077Z,21.32
2018-08-31T11:48:38.301Z,21.43
2018-08-31T11:49:38.544Z,21.51
2018-08-31T11:50:38.790Z,21.66
2018-08-31T11:51:39.017Z,21.69
2018-08-31T11:52:39.257Z,21.64
2018-08-31T11:53:39.494Z,21.76
2018-08-31T11:54:39.742Z,21.66
2018-08-31T11:55:39.977Z,21.76
2018-08-31T11:56:40.216Z,21.70
2018-08-31T11:57:40.476Z,21.67
2018-08-31T11:58:40.722Z,21.70
2018-08-31T11:59:40.960Z,21.67
2018-08-31T12:00:41.211Z,21.76
2018-08-31T12:01:41.437Z,21.58
2018-08-31T12:02:41.674Z,21.52
2018-08-31T12:03:41.908Z,21.72
2018-08-31T12:04:42.154Z,21.72
2018-08-31T12:05:42.376Z,21.69
2018-08-31T12:06:42.615Z,21.69
2018-08-31T12:07:42.911Z,21.62
2018-08-31T12:08:43.088Z,21.75
2018-08-31T12:09:43.326Z,21.79
2018-08-31T12:10:43.620Z,21.93
2018-08-31T12:11:43.733Z,21.76
2018-08-31T12:12:43.967Z,21.85
2018-08-31T12:13:44.249Z,21.93
2018-08-31T12:14:44.487Z,21.96
2018-08-31T12:15:44.733Z,21.99
2018-08-31T12:16:44.978Z,21.92
2018-08-31T12:17:45.225Z,22.11
2018-08-31T12:18:45.471Z,22.22
2018-08-31T12:19:45.722Z,22.25
2018-08-31T12:20:45.963Z,22.35
2018-08-31T12:21:46.200Z,22.17
2018-08-31T12:22:46.438Z,22.13
2018-08-31T12:23:46.671Z,21.70
2018-08-31T12:24:46.915Z,21.72
2018-08-31T12:25:47.155Z,21.72
2018-08-31T12:26:47.393Z,21.70
2018-08-31T12:27:47.628Z,21.82
2018-08-31T12:28:47.912Z,21.70
2018-08-31T12:29:48.103Z,21.70
2018-08-31T12:30:48.344Z,21.76
2018-08-31T12:31:48.596Z,21.66
2018-08-31T12:32:48.839Z,21.64
2018-08-31T12:33:49.083Z,21.79
2018-08-31T12:34:49.322Z,21.89
2018-08-31T12:35:49.587Z,21.77
2018-08-31T12:36:49.828Z,21.76
2018-08-31T12:37:50.066Z,21.75
2018-08-31T12:38:50.318Z,21.75
2018-08-31T12:39:50.563Z,21.96
2018-08-31T12:40:50.808Z,21.91
2018-08-31T12:41:51.049Z,21.95
2018-08-31T12:42:51.272Z,21.82
2018-08-31T12:43:51.585Z,21.83
2018-08-31T12:44:51.754Z,22.00
2018-08-31T12:45:52.012Z,22.15
2018-08-31T12:46:52.250Z,22.23
2018-08-31T12:47:52.482Z,22.43
2018-08-31T12:48:52.712Z,22.51
2018-08-31T12:49:52.946Z,22.66
2018-08-31T12:50:53.191Z,22.73
2018-08-31T12:51:53.423Z,22.87
2018-08-31T12:52:53.666Z,23.13
2018-08-31T12:53:53.914Z,23.18
2018-08-31T12:54:54.145Z,23.25
2018-08-31T12:55:54.388Z,23.46